Portada
METAR-TAF:

METAR-TAF

Aeropuertos :

Córdoba, Argentina

Aeropuerto Internacional Ingeniero Ambrosio Taravella

latitud: 31-19S, longitud: 064-13W, altitud: 484 m

Observación

Viento 6 kt del suroeste
Temperatura 6°C
Humedad 93%
Presión 1023 hPa
Visibilidad 10 km o más
sin nubes por debajo de 1500 m y sin presencia de cumulonimbus.

METAR: SACO 232006KT CAVOK 06/05 Q1023

Hora: 01:28 (04:28 UTC)

Pronóstico

El informe se hizo hace 5 horas y 28 minutos, a las 23:00 UTC
Pronóstico válido del 22 a las 00 UTC al 22 a las 24 UTC
Viento 5 kt del sur
Visibilidad 10 km o más
sin nubes por debajo de 1500 m y sin presencia de cumulonimbus.

TAF: SACO 212300Z 2200/2224 18005KT CAVOK TX22/2218Z TN03/2210Z

Observaciones y pronósticos meteorológicos de más de 4000 aeropuertos (mensajes METAR y TAF).

Los puntos amarillos y rojos representan las estaciones disponibles.

Ponga el ratón en el punto deseado para ver el nombre de la estación.

Haga clic para ver las observaciones y los pronósticos meteorológicos.

Para cambiar el mapa : haga clic en los botones verdes con una cruz de color negro para hacer un zoom, en el botón verde con un guión para alejar o en las flechas verdes para mapas adyacentes.


METAR-TAF: